EDT,Max TemperatureF,Mean TemperatureF,Min TemperatureF,Max Dew PointF,MeanDew PointF,Min DewpointF,Max Humidity, Mean Humidity, Min Humidity, Max Sea Level PressureIn, Mean Sea Level PressureIn, Min Sea Level PressureIn, Max VisibilityMiles, Mean VisibilityMiles, Min VisibilityMiles, Max Wind SpeedMPH, Mean Wind SpeedMPH, Max Gust SpeedMPH,PrecipitationIn, CloudCover, Events, WindDirDegrees
2013-3-1,62,56,50,50,43,37,77,59,48,30.05,30.00,29.94,10,10,10,15,10,26,0.00,2,,347
2013-3-2,58,51,44,43,40,37,76,60,51,30.11,30.05,30.01,10,10,10,18,11,25,0.00,5,Rain,355
2013-3-3,53,47,41,39,34,27,66,59,50,30.18,30.09,30.02,10,10,10,18,11,25,0.00,6,,360
2013-3-4,66,52,37,45,35,27,76,55,30,30.25,30.19,30.16,10,10,10,12,7,,0.00,1,,9
2013-3-5,71,56,41,64,53,36,100,79,63,30.20,30.14,30.06,10,10,10,14,6,,0.00,1,,253
2013-3-6,64,58,51,64,51,37,100,76,42,30.16,30.07,29.98,10,10,10,21,14,30,0.00,3,Rain,338
2013-3-7,64,52,41,46,37,32,87,59,34,30.25,30.21,30.16,10,10,10,14,8,20,0.00,0,,12
2013-3-8,73,58,42,48,44,41,100,69,33,30.25,30.21,30.15,10,10,10,12,4,,0.00,0,,15
2013-3-9,77,60,44,54,47,43,94,65,31,30.24,30.19,30.16,10,10,10,13,7,,0.00,1,,86
2013-3-10,80,68,57,59,56,52,94,71,42,30.17,30.12,30.07,10,10,10,17,9,18,0.00,4,,117
2013-3-11,77,67,57,64,61,57,100,83,65,30.12,30.02,29.92,10,10,10,20,10,24,0.00,1,,213
2013-3-12,68,62,57,68,63,53,100,95,77,30.07,29.95,29.88,10,9,2,18,10,26,0.34,5,Rain,283
2013-3-13,72,62,54,54,46,36,86,59,28,30.21,30.14,30.06,10,10,10,15,10,22,0.00,0,,352
2013-3-14,64,56,49,52,37,26,80,50,28,30.30,30.24,30.19,10,10,10,15,10,21,0.00,0,,1
2013-3-15,71,54,38,47,40,33,97,64,28,30.32,30.25,30.19,10,10,10,12,5,17,0.00,0,,30
2013-3-16,75,59,43,59,50,39,97,76,45,30.21,30.16,30.11,10,10,10,13,4,,0.00,0,,217
2013-3-17,77,64,50,64,57,49,100,89,53,30.16,30.08,30.02,10,8,0,13,3,,0.00,3,Fog-Rain,178
2013-3-18,73,66,60,68,65,59,100,93,81,30.06,29.98,29.90,10,10,10,21,7,29,0.00,3,Rain,238
2013-3-19,84,72,60,69,64,59,100,90,44,30.04,29.98,29.92,10,7,0,13,3,,0.00,2,Fog-Rain,95
2013-3-20,74,66,57,68,64,57,100,95,70,29.99,29.93,29.84,10,10,7,16,5,26,0.15,4,Rain,354
2013-3-21,68,57,44,61,44,32,100,64,30,30.02,29.95,29.91,10,10,10,13,7,20,0.01,1,,353
2013-3-22,76,60,44,66,58,41,100,81,39,30.02,29.95,29.91,10,10,4,16,6,,0.20,5,Rain-Thunderstorm,105
2013-3-23,79,72,64,75,69,64,100,97,83,29.98,29.88,29.82,10,8,1,17,9,,0.00,6,,249
2013-3-24,77,73,69,74,71,68,100,98,87,29.84,29.75,29.69,10,9,2,20,12,25,0.00,5,Rain,275
2013-3-25,68,62,55,68,50,37,99,66,38,30.08,29.93,29.78,10,10,10,20,11,28,0.00,0,,340
2013-3-26,58,52,47,46,36,28,65,51,42,30.27,30.18,30.07,10,10,10,18,13,30,0.00,1,,356
2013-3-27,58,50,42,39,34,29,82,57,39,30.36,30.29,30.25,10,10,10,14,8,21,0.00,0,,10
2013-3-28,69,54,39,48,37,31,97,60,28,30.33,30.28,30.23,10,10,10,12,5,18,0.00,0,,17
2013-3-29,76,59,43,52,42,35,99,60,23,30.35,30.28,30.22,10,10,10,13,6,,0.00,0,,53
2013-3-30,75,61,47,57,52,44,92,73,50,30.27,30.23,30.17,10,10,10,15,6,,0.00,0,,202
2013-3-31,79,67,55,65,60,52,99,81,53,30.18,30.12,30.04,10,10,10,14,6,,0.00,2,,199